createdAt,value
2023-04-14T00:01:56.474Z,97494.16
2023-04-14T00:04:23.172Z,97492.31
2023-04-14T00:06:49.953Z,97482.97
2023-04-14T00:09:16.436Z,97485.25
2023-04-14T00:11:42.927Z,97490.56
2023-04-14T00:14:09.380Z,97500.59
2023-04-14T00:16:36.034Z,97489.75
2023-04-14T00:19:02.917Z,97499.41
2023-04-14T00:21:29.575Z,97492.63
2023-04-14T00:23:56.748Z,97490.97
2023-04-14T00:26:23.270Z,97495.25
2023-04-14T00:28:49.724Z,97497.53
2023-04-14T00:31:16.368Z,97498.25
2023-04-14T00:33:42.897Z,97495.31
2023-04-14T00:36:09.379Z,97502.19
2023-04-14T00:38:35.874Z,97503.25
2023-04-14T00:41:02.397Z,97510.19
2023-04-14T00:43:28.875Z,97513.25
2023-04-14T00:45:55.497Z,97510.22
2023-04-14T00:48:22.024Z,97516.72
2023-04-14T00:50:48.571Z,97511.81
2023-04-14T00:53:15.090Z,97505.19
2023-04-14T00:55:41.615Z,97512.97
2023-04-14T00:58:08.366Z,97507.69
2023-04-14T01:00:35.336Z,97514.19
2023-04-14T01:03:01.925Z,97518.28
2023-04-14T01:05:28.668Z,97518.06
2023-04-14T01:07:55.353Z,97528.03
2023-04-14T01:10:21.880Z,97513.66
2023-04-14T01:13:04.326Z,97522.47
2023-04-14T01:15:36.085Z,97521.19
2023-04-14T01:18:14.707Z,97521.97
2023-04-14T01:20:42.527Z,97519.72
2023-04-14T01:23:11.692Z,97518.75
2023-04-14T01:26:17.123Z,97514.34
2023-04-14T01:29:02.482Z,97512.25
2023-04-14T01:31:49.283Z,97510.31
2023-04-14T01:34:39.162Z,97514.53
2023-04-14T01:37:12.523Z,97512.94
2023-04-14T01:39:40.507Z,97519.41
2023-04-14T01:42:11.354Z,97523.41
2023-04-14T01:44:38.725Z,97525.16
2023-04-14T01:47:07.736Z,97523.69
2023-04-14T01:49:35.493Z,97520.63
2023-04-14T01:52:02.328Z,97528.84
2023-04-14T01:54:28.809Z,97527.72
2023-04-14T01:56:55.275Z,97527.22
2023-04-14T01:59:22.561Z,97529.66
2023-04-14T02:01:50.485Z,97530.63
2023-04-14T02:04:18.147Z,97532.78
2023-04-14T02:06:44.733Z,97533.13
2023-04-14T02:09:12.886Z,97537.75
2023-04-14T02:11:39.896Z,97525.00
2023-04-14T02:14:06.388Z,97524.53
2023-04-14T02:16:33.661Z,97527.75
2023-04-14T02:19:00.436Z,97534.69
2023-04-14T02:21:27.192Z,97532.91
2023-04-14T02:23:53.676Z,97532.28
2023-04-14T02:26:22.173Z,97537.91
2023-04-14T02:28:58.920Z,97529.03
2023-04-14T02:31:25.699Z,97522.09
2023-04-14T02:33:54.835Z,97518.72
2023-04-14T02:36:23.731Z,97529.50
2023-04-14T02:38:56.707Z,97519.00
2023-04-14T02:41:27.081Z,97532.44
2023-04-14T02:44:07.485Z,97535.50
2023-04-14T02:46:37.561Z,97540.66
2023-04-14T02:49:12.933Z,97538.38
2023-04-14T02:51:39.667Z,97535.13
2023-04-14T02:54:06.170Z,97533.41
2023-04-14T02:56:32.884Z,97545.19
2023-04-14T02:58:59.557Z,97550.03
2023-04-14T03:01:26.257Z,97552.97
2023-04-14T03:03:53.312Z,97551.19
2023-04-14T03:06:20.199Z,97553.75
2023-04-14T03:08:47.455Z,97544.75
2023-04-14T03:11:14.698Z,97551.53
2023-04-14T03:13:42.000Z,97555.53
2023-04-14T03:16:09.442Z,97551.22
2023-04-14T03:18:36.055Z,97545.72
2023-04-14T03:21:02.737Z,97546.34
2023-04-14T03:23:29.198Z,97546.00
2023-04-14T03:25:55.738Z,97545.22
2023-04-14T03:28:23.602Z,97544.91
2023-04-14T03:30:51.615Z,97548.59
2023-04-14T03:33:20.429Z,97546.47
2023-04-14T03:35:46.976Z,97549.06
2023-04-14T03:38:17.389Z,97552.94
2023-04-14T03:40:46.352Z,97546.34
2023-04-14T03:43:14.095Z,97549.69
2023-04-14T03:45:40.730Z,97562.44
2023-04-14T03:48:09.912Z,97554.03
2023-04-14T03:50:37.016Z,97558.09
2023-04-14T03:53:04.165Z,97557.47
2023-04-14T03:55:31.815Z,97557.13
2023-04-14T03:57:58.873Z,97572.28
2023-04-14T04:00:26.157Z,97559.91
2023-04-14T04:02:53.810Z,97562.63
2023-04-14T04:05:21.138Z,97561.81
2023-04-14T04:07:48.203Z,97564.72
2023-04-14T04:10:14.684Z,97564.84
2023-04-14T04:12:44.423Z,97553.56
2023-04-14T04:15:11.349Z,97564.84
2023-04-14T04:17:38.072Z,97559.69
2023-04-14T04:20:14.406Z,97561.41
2023-04-14T04:22:41.874Z,97567.56
2023-04-14T04:25:08.850Z,97562.28
2023-04-14T04:27:35.366Z,97562.78
2023-04-14T04:30:01.946Z,97556.81
2023-04-14T04:32:28.620Z,97558.75
2023-04-14T04:34:55.201Z,97566.50
2023-04-14T04:37:21.724Z,97559.41
2023-04-14T04:39:48.673Z,97563.75
2023-04-14T04:42:15.237Z,97566.53
2023-04-14T04:44:41.871Z,97562.66
2023-04-14T04:47:08.368Z,97571.19
2023-04-14T04:49:34.819Z,97577.63
2023-04-14T04:52:01.310Z,97577.63
2023-04-14T04:54:27.828Z,97583.94
2023-04-14T04:56:54.334Z,97581.84
2023-04-14T04:59:20.822Z,97580.72
2023-04-14T05:01:47.471Z,97574.28
2023-04-14T05:04:14.114Z,97575.72
2023-04-14T05:06:40.852Z,97585.25
2023-04-14T05:09:07.328Z,97591.69
2023-04-14T05:11:33.955Z,97581.78
2023-04-14T05:14:00.545Z,97592.44
2023-04-14T05:16:28.240Z,97587.94
2023-04-14T05:18:54.729Z,97584.66
2023-04-14T05:21:21.648Z,97580.72
2023-04-14T05:23:48.218Z,97588.41
2023-04-14T05:26:40.247Z,97583.88
2023-04-14T05:29:01.890Z,97581.06
2023-04-14T05:31:28.503Z,97581.22
2023-04-14T05:33:55.117Z,97579.38
2023-04-14T05:36:21.608Z,97578.81
2023-04-14T05:38:48.112Z,97583.41
2023-04-14T05:41:14.638Z,97582.47
2023-04-14T05:43:41.149Z,97574.41
2023-04-14T05:46:07.768Z,97573.59
2023-04-14T05:48:36.325Z,97577.34
2023-04-14T05:51:02.810Z,97575.13
2023-04-14T05:53:29.342Z,97578.19
2023-04-14T05:55:57.237Z,97578.81
2023-04-14T05:58:26.238Z,97580.63
2023-04-14T06:00:52.833Z,97575.03
2023-04-14T06:03:19.695Z,97570.88
2023-04-14T06:05:48.164Z,97578.03
2023-04-14T06:08:14.667Z,97575.72
2023-04-14T06:10:41.366Z,97581.00
2023-04-14T06:13:08.615Z,97581.66
2023-04-14T06:15:35.297Z,97582.13
2023-04-14T06:18:01.894Z,97580.50
2023-04-14T06:20:29.585Z,97583.50
2023-04-14T06:22:57.232Z,97578.19
2023-04-14T06:25:23.729Z,97576.66
2023-04-14T06:27:50.208Z,97573.72
2023-04-14T06:30:16.881Z,97578.16
2023-04-14T06:32:43.527Z,97574.88
2023-04-14T06:35:19.103Z,97574.91
2023-04-14T06:37:52.406Z,97578.53
2023-04-14T06:40:18.915Z,97578.34
2023-04-14T06:42:45.466Z,97586.03
2023-04-14T06:45:12.042Z,97577.19
2023-04-14T06:47:38.643Z,97580.75
2023-04-14T06:50:05.566Z,97584.22
2023-04-14T06:52:32.093Z,97590.91
2023-04-14T06:54:58.551Z,97582.56
2023-04-14T06:57:26.339Z,97573.72
2023-04-14T06:59:52.912Z,97568.06
2023-04-14T07:02:19.491Z,97569.00
2023-04-14T07:04:46.077Z,97570.69
2023-04-14T07:07:14.350Z,97577.34
2023-04-14T07:09:43.871Z,97572.28
2023-04-14T07:12:14.471Z,97578.72
2023-04-14T07:14:41.326Z,97575.50
2023-04-14T07:17:08.053Z,97584.31
2023-04-14T07:19:34.567Z,97583.63
2023-04-14T07:22:01.932Z,97570.19
2023-04-14T07:24:28.412Z,97567.25
2023-04-14T07:26:54.875Z,97575.56
2023-04-14T07:29:21.581Z,97570.66
2023-04-14T07:31:48.497Z,97561.47
2023-04-14T07:34:15.087Z,97561.69
2023-04-14T07:36:41.631Z,97569.47
2023-04-14T07:39:08.244Z,97563.72
2023-04-14T07:41:34.710Z,97571.19
2023-04-14T07:44:01.369Z,97560.63
2023-04-14T07:46:28.056Z,97568.88
2023-04-14T07:48:54.616Z,97566.16
2023-04-14T07:51:21.399Z,97563.31
2023-04-14T07:53:47.965Z,97562.66
2023-04-14T07:56:14.899Z,97552.63
2023-04-14T07:58:41.388Z,97547.19
2023-04-14T08:01:08.050Z,97574.97
2023-04-14T08:03:37.196Z,97580.91
2023-04-14T08:06:05.712Z,97575.41
2023-04-14T08:08:32.720Z,97583.03
2023-04-14T08:10:59.233Z,97593.59
2023-04-14T08:13:25.904Z,97576.09
2023-04-14T08:15:52.483Z,97584.78
2023-04-14T08:18:19.045Z,97582.72
2023-04-14T08:20:45.585Z,97588.81
2023-04-14T08:23:12.226Z,97593.00
2023-04-14T08:25:38.736Z,97585.25
2023-04-14T08:28:05.683Z,97584.38
2023-04-14T08:30:32.214Z,97587.59
2023-04-14T08:32:58.934Z,97581.44
2023-04-14T08:35:36.838Z,97587.66
2023-04-14T08:38:07.805Z,97586.91
2023-04-14T08:40:41.265Z,97590.53
2023-04-14T08:43:07.827Z,97580.94
2023-04-14T08:45:34.357Z,97578.06
2023-04-14T08:48:01.840Z,97574.19
2023-04-14T08:50:33.299Z,97578.06
2023-04-14T08:53:01.091Z,97569.03
2023-04-14T08:55:27.576Z,97580.72
2023-04-14T08:57:54.053Z,97577.94
2023-04-14T09:00:20.644Z,97576.69
2023-04-14T09:02:47.501Z,97568.00
2023-04-14T09:05:14.164Z,97565.44
2023-04-14T09:07:42.652Z,97561.44
2023-04-14T09:10:11.064Z,97557.56
2023-04-14T09:12:41.586Z,97566.25
2023-04-14T09:15:08.884Z,97559.88
2023-04-14T09:17:36.703Z,97552.88
2023-04-14T09:20:38.037Z,97570.53
2023-04-14T09:22:50.002Z,97578.28
2023-04-14T09:25:16.499Z,97578.59
2023-04-14T09:27:42.969Z,97580.59
2023-04-14T09:30:09.756Z,97583.91
2023-04-14T09:32:36.876Z,97573.00
2023-04-14T09:35:03.440Z,97578.28
2023-04-14T09:37:41.124Z,97578.59
2023-04-14T09:40:08.277Z,97566.59
2023-04-14T09:42:42.519Z,97569.44
2023-04-14T09:45:09.601Z,97551.16
2023-04-14T09:47:36.161Z,97548.84
2023-04-14T09:50:04.120Z,97543.34
2023-04-14T09:52:41.019Z,97543.41
2023-04-14T09:55:12.268Z,97539.34
2023-04-14T09:57:42.669Z,97537.44
2023-04-14T10:00:27.270Z,97524.16
2023-04-14T10:02:59.098Z,97538.59
2023-04-14T10:05:29.299Z,97521.91
2023-04-14T10:08:05.261Z,97514.69
2023-04-14T10:10:31.766Z,97505.16
2023-04-14T10:12:59.795Z,97489.91
2023-04-14T10:15:26.336Z,97497.06
2023-04-14T10:17:52.824Z,97513.16
2023-04-14T10:20:19.384Z,97505.41
2023-04-14T10:22:46.000Z,97498.56
2023-04-14T10:25:13.514Z,97518.78
2023-04-14T10:27:40.163Z,97505.66
2023-04-14T10:30:08.670Z,97497.69
2023-04-14T10:32:35.445Z,97513.47
2023-04-14T10:35:09.176Z,97503.16
2023-04-14T10:37:35.731Z,97479.56
2023-04-14T10:40:07.154Z,97493.25
2023-04-14T10:42:57.236Z,97505.63
2023-04-14T10:45:23.754Z,97494.44
2023-04-14T10:47:50.844Z,97486.41
2023-04-14T10:50:18.099Z,97475.28
2023-04-14T10:52:55.695Z,97487.25
2023-04-14T10:55:26.041Z,97475.69
2023-04-14T10:57:54.515Z,97475.28
2023-04-14T11:00:21.969Z,97473.31
2023-04-14T11:03:05.498Z,97493.56
2023-04-14T11:05:33.968Z,97463.56
2023-04-14T11:08:03.100Z,97460.88
2023-04-14T11:10:33.093Z,97472.88
2023-04-14T11:13:02.340Z,97461.66
2023-04-14T11:15:48.440Z,97452.13
2023-04-14T11:18:21.598Z,97445.25
2023-04-14T11:20:48.248Z,97452.03
2023-04-14T11:23:15.282Z,97451.38
2023-04-14T11:25:41.901Z,97451.31
2023-04-14T11:28:08.773Z,97437.69
2023-04-14T11:30:35.287Z,97443.56
2023-04-14T11:33:01.847Z,97439.06
2023-04-14T11:35:28.612Z,97431.03
2023-04-14T11:37:59.303Z,97450.97
2023-04-14T11:40:27.241Z,97451.97
2023-04-14T11:42:57.466Z,97449.13
2023-04-14T11:45:28.036Z,97451.28
2023-04-14T11:48:01.751Z,97463.72
2023-04-14T11:50:31.398Z,97432.41
2023-04-14T11:53:02.841Z,97447.41
2023-04-14T11:55:29.457Z,97430.09
2023-04-14T11:57:56.107Z,97450.38
2023-04-14T12:00:22.653Z,97426.25
2023-04-14T12:02:49.415Z,97452.31
2023-04-14T12:05:22.207Z,97447.38
2023-04-14T12:07:49.214Z,97453.41
2023-04-14T12:10:16.014Z,97454.03
2023-04-14T12:12:42.655Z,97467.69
2023-04-14T12:15:09.567Z,97456.72
2023-04-14T12:17:36.328Z,97444.72
2023-04-14T12:20:03.919Z,97444.56
2023-04-14T12:22:30.735Z,97446.44
2023-04-14T12:24:57.753Z,97436.97
2023-04-14T12:27:25.125Z,97431.16
2023-04-14T12:29:51.730Z,97447.66
2023-04-14T12:32:18.589Z,97448.78
2023-04-14T12:34:57.396Z,97457.44
2023-04-14T12:37:26.146Z,97449.38
2023-04-14T12:40:00.243Z,97451.53
2023-04-14T12:42:27.454Z,97444.28
2023-04-14T12:45:00.755Z,97441.34
2023-04-14T12:47:28.943Z,97435.00
2023-04-14T12:49:56.712Z,97440.56
2023-04-14T12:52:39.683Z,97435.38
2023-04-14T12:55:07.720Z,97431.78
2023-04-14T12:57:34.646Z,97430.22
2023-04-14T13:00:02.056Z,97419.81
2023-04-14T13:02:29.830Z,97410.94
2023-04-14T13:04:56.771Z,97415.34
2023-04-14T13:07:23.480Z,97420.53
2023-04-14T13:09:51.393Z,97421.31
2023-04-14T13:12:18.571Z,97404.22
2023-04-14T13:14:45.215Z,97411.75
2023-04-14T13:17:11.825Z,97407.38
2023-04-14T13:19:38.379Z,97399.84
2023-04-14T13:22:04.935Z,97405.41
2023-04-14T13:24:31.396Z,97393.88
2023-04-14T13:26:57.926Z,97397.50
2023-04-14T13:29:24.480Z,97385.97
2023-04-14T13:31:51.205Z,97394.75
2023-04-14T13:34:17.739Z,97404.72
2023-04-14T13:36:45.567Z,97400.69
2023-04-14T13:39:12.335Z,97399.84
2023-04-14T13:41:38.858Z,97400.19
2023-04-14T13:44:05.657Z,97404.97
2023-04-14T13:46:40.500Z,97401.50
2023-04-14T13:49:07.569Z,97391.03
2023-04-14T13:51:34.057Z,97400.06
2023-04-14T13:54:00.769Z,97393.75
2023-04-14T13:56:27.376Z,97385.28
2023-04-14T13:58:53.952Z,97391.47
2023-04-14T14:01:20.657Z,97391.59
2023-04-14T14:03:47.715Z,97403.22
2023-04-14T14:06:14.549Z,97390.41
2023-04-14T14:08:42.242Z,97389.16
2023-04-14T14:11:09.588Z,97390.25
2023-04-14T14:13:36.920Z,97392.66
2023-04-14T14:16:03.780Z,97393.66
2023-04-14T14:18:30.396Z,97403.38
2023-04-14T14:20:57.158Z,97401.84
2023-04-14T14:23:24.923Z,97391.47
2023-04-14T14:25:52.182Z,97378.81
2023-04-14T14:28:21.001Z,97373.56
2023-04-14T14:30:47.626Z,97391.66
2023-04-14T14:33:14.364Z,97385.41
2023-04-14T14:35:40.830Z,97378.44
2023-04-14T14:38:07.304Z,97388.38
2023-04-14T14:40:33.839Z,97389.34
2023-04-14T14:43:00.335Z,97374.09
2023-04-14T14:45:30.792Z,97382.22
2023-04-14T14:47:57.949Z,97358.47
2023-04-14T14:50:24.491Z,97373.59
2023-04-14T14:52:50.975Z,97375.19
2023-04-14T14:55:17.557Z,97375.59
2023-04-14T14:57:44.031Z,97378.72
2023-04-14T15:00:11.001Z,97372.72
2023-04-14T15:02:38.536Z,97371.56
2023-04-14T15:05:05.836Z,97373.19
2023-04-14T15:07:32.379Z,97357.63
2023-04-14T15:09:58.865Z,97369.19
2023-04-14T15:12:25.382Z,97364.00
2023-04-14T15:14:51.880Z,97363.63
2023-04-14T15:17:18.368Z,97345.31
2023-04-14T15:19:44.903Z,97346.09
2023-04-14T15:22:11.417Z,97345.28
2023-04-14T15:24:38.301Z,97343.31
2023-04-14T15:27:04.784Z,97333.75
2023-04-14T15:29:31.626Z,97334.16
2023-04-14T15:31:58.193Z,97332.53
2023-04-14T15:34:25.257Z,97341.72
2023-04-14T15:36:51.783Z,97353.66
2023-04-14T15:39:18.332Z,97348.06
2023-04-14T15:41:47.439Z,97343.16
2023-04-14T15:44:14.016Z,97350.34
2023-04-14T15:46:40.480Z,97367.16
2023-04-14T15:49:06.952Z,97359.91
2023-04-14T15:51:34.626Z,97359.09
2023-04-14T15:54:01.954Z,97361.97
2023-04-14T15:56:28.678Z,97352.69
2023-04-14T15:58:55.153Z,97353.06
2023-04-14T16:01:21.788Z,97350.66
2023-04-14T16:03:50.384Z,97356.22
2023-04-14T16:06:18.522Z,97347.50
2023-04-14T16:08:44.991Z,97336.34
2023-04-14T16:11:15.760Z,97330.81
2023-04-14T16:13:44.012Z,97337.19
2023-04-14T16:16:12.788Z,97337.09
2023-04-14T16:18:39.350Z,97357.38
2023-04-14T16:21:05.976Z,97376.00
2023-04-14T16:23:32.449Z,97373.97
2023-04-14T16:25:58.919Z,97371.59
2023-04-14T16:28:25.765Z,97370.78
2023-04-14T16:30:52.301Z,97372.28
2023-04-14T16:33:19.001Z,97373.00
2023-04-14T16:35:45.478Z,97381.31
2023-04-14T16:38:12.217Z,97378.47
2023-04-14T16:40:38.758Z,97390.44
2023-04-14T16:43:05.436Z,97381.97
2023-04-14T16:45:32.125Z,97381.19
2023-04-14T16:47:58.726Z,97384.63
2023-04-14T16:50:25.267Z,97383.19
2023-04-14T16:52:52.386Z,97378.28
2023-04-14T16:55:18.839Z,97388.59
2023-04-14T16:57:45.630Z,97390.50
2023-04-14T17:00:13.722Z,97388.28
2023-04-14T17:02:41.236Z,97393.81
2023-04-14T17:05:10.254Z,97397.25
2023-04-14T17:07:37.012Z,97394.00
2023-04-14T17:10:03.627Z,97407.69
2023-04-14T17:12:30.130Z,97397.63
2023-04-14T17:14:56.869Z,97402.69
2023-04-14T17:17:23.421Z,97397.03
2023-04-14T17:19:50.029Z,97402.47
2023-04-14T17:22:16.682Z,97406.72
2023-04-14T17:24:43.983Z,97405.91
2023-04-14T17:27:10.928Z,97401.84
2023-04-14T17:29:37.461Z,97403.81
2023-04-14T17:32:04.324Z,97399.47
2023-04-14T17:34:30.852Z,97403.09
2023-04-14T17:36:57.353Z,97397.53
2023-04-14T17:39:26.897Z,97409.50
2023-04-14T17:41:57.855Z,97407.53
2023-04-14T17:44:34.466Z,97408.31
2023-04-14T17:47:03.194Z,97409.94
2023-04-14T17:49:30.110Z,97416.22
2023-04-14T17:51:57.017Z,97410.72
2023-04-14T17:54:23.486Z,97408.69
2023-04-14T17:56:50.319Z,97407.41
2023-04-14T17:59:17.011Z,97412.94
2023-04-14T18:01:43.676Z,97410.16
2023-04-14T18:04:10.406Z,97407.59
2023-04-14T18:06:36.921Z,97424.28
2023-04-14T18:09:04.036Z,97412.66
2023-04-14T18:11:30.762Z,97421.16
2023-04-14T18:13:58.317Z,97422.44
2023-04-14T18:16:25.052Z,97422.44
2023-04-14T18:18:51.557Z,97425.53
2023-04-14T18:21:18.658Z,97428.66
2023-04-14T18:23:45.408Z,97422.81
2023-04-14T18:28:41.519Z,97426.53
2023-04-14T18:31:08.697Z,97420.19
2023-04-14T18:33:35.236Z,97427.47
2023-04-14T18:36:02.055Z,97433.38
2023-04-14T18:38:28.680Z,97440.38
2023-04-14T18:41:01.213Z,97437.66
2023-04-14T18:43:28.302Z,97442.97
2023-04-14T18:45:55.103Z,97450.13
2023-04-14T18:48:21.647Z,97449.69
2023-04-14T18:50:49.125Z,97454.34
2023-04-14T18:53:16.004Z,97450.69
2023-04-14T18:55:45.463Z,97452.66
2023-04-14T18:58:12.934Z,97454.09
2023-04-14T19:00:39.875Z,97457.88
2023-04-14T19:03:08.493Z,97461.81
2023-04-14T19:05:36.831Z,97468.59
2023-04-14T19:08:06.916Z,97476.03
2023-04-14T19:10:33.926Z,97470.78
2023-04-14T19:13:00.394Z,97478.13
2023-04-14T19:15:27.742Z,97476.09
2023-04-14T19:17:55.051Z,97484.56
2023-04-14T19:20:21.972Z,97484.84
2023-04-14T19:22:49.463Z,97486.13
2023-04-14T19:25:16.546Z,97482.78
2023-04-14T19:27:43.543Z,97485.69
2023-04-14T19:30:10.809Z,97475.25
2023-04-14T19:32:37.472Z,97486.81
2023-04-14T19:35:06.600Z,97480.34
2023-04-14T19:37:33.852Z,97486.13
2023-04-14T19:40:00.844Z,97477.28
2023-04-14T19:42:27.340Z,97480.84
2023-04-14T19:44:53.792Z,97480.50
2023-04-14T19:47:20.321Z,97488.09
2023-04-14T19:49:46.821Z,97485.94
2023-04-14T19:52:13.309Z,97482.56
2023-04-14T19:54:39.872Z,97481.59
2023-04-14T19:57:06.759Z,97471.16
2023-04-14T19:59:33.393Z,97472.13
2023-04-14T20:02:01.947Z,97470.63
2023-04-14T20:04:28.512Z,97470.78
2023-04-14T20:06:55.263Z,97471.16
2023-04-14T20:09:21.767Z,97471.41
2023-04-14T20:11:48.264Z,97479.19
2023-04-14T20:14:16.107Z,97470.47
2023-04-14T20:16:42.809Z,97469.31
2023-04-14T20:19:09.441Z,97468.03
2023-04-14T20:21:35.943Z,97473.19
2023-04-14T20:24:03.093Z,97460.84
2023-04-14T20:26:29.573Z,97466.16
2023-04-14T20:28:56.107Z,97463.19
2023-04-14T20:31:23.822Z,97468.66
2023-04-14T20:33:50.947Z,97467.97
2023-04-14T20:36:17.523Z,97464.63
2023-04-14T20:38:44.041Z,97460.69
2023-04-14T20:41:10.538Z,97471.41
2023-04-14T20:43:37.048Z,97476.75
2023-04-14T20:46:04.143Z,97470.34
2023-04-14T20:48:32.079Z,97467.50
2023-04-14T20:50:59.625Z,97475.41
2023-04-14T20:53:28.232Z,97471.72
2023-04-14T20:55:55.010Z,97467.56
2023-04-14T20:58:21.506Z,97463.66
2023-04-14T21:00:48.025Z,97468.75
2023-04-14T21:03:14.616Z,97461.22
2023-04-14T21:05:41.262Z,97460.88
2023-04-14T21:08:08.322Z,97452.22
2023-04-14T21:10:35.577Z,97465.44
2023-04-14T21:15:31.035Z,97462.44
2023-04-14T21:16:09.113Z,97471.97
2023-04-14T21:18:36.323Z,97465.31
2023-04-14T21:21:04.731Z,97472.78
2023-04-14T21:23:31.569Z,97477.38
2023-04-14T21:25:59.795Z,97470.00
2023-04-14T21:28:26.332Z,97472.31
2023-04-14T21:30:55.822Z,97468.66
2023-04-14T21:33:22.329Z,97462.38
2023-04-14T21:35:49.531Z,97461.44
2023-04-14T21:38:16.224Z,97461.31
2023-04-14T21:40:43.248Z,97466.63
2023-04-14T21:43:09.719Z,97463.41
2023-04-14T21:45:36.801Z,97468.22
2023-04-14T21:48:03.477Z,97472.13
2023-04-14T21:50:31.968Z,97467.53
2023-04-14T21:53:00.070Z,97467.44
2023-04-14T21:55:26.545Z,97463.75
2023-04-14T21:57:54.586Z,97471.69
2023-04-14T22:00:21.342Z,97469.59
2023-04-14T22:02:48.270Z,97463.41
2023-04-14T22:05:15.003Z,97470.31
2023-04-14T22:07:41.534Z,97466.63
2023-04-14T22:10:08.230Z,97462.22
2023-04-14T22:12:35.972Z,97468.22
2023-04-14T22:15:03.802Z,97466.16
2023-04-14T22:17:31.157Z,97459.59
2023-04-14T22:19:57.701Z,97464.44
2023-04-14T22:22:24.379Z,97467.56
2023-04-14T22:24:51.740Z,97462.03
2023-04-14T22:27:18.281Z,97457.34
2023-04-14T22:29:44.762Z,97458.00
2023-04-14T22:32:11.450Z,97471.44
2023-04-14T22:34:37.986Z,97468.78
2023-04-14T22:37:04.528Z,97475.34
2023-04-14T22:39:31.271Z,97467.16
2023-04-14T22:41:58.016Z,97466.34
2023-04-14T22:44:24.477Z,97463.59
2023-04-14T22:46:50.956Z,97462.13
2023-04-14T22:49:17.440Z,97468.88
2023-04-14T22:51:43.966Z,97459.00
2023-04-14T22:54:10.432Z,97469.09
2023-04-14T22:56:37.217Z,97461.91
2023-04-14T22:59:04.047Z,97469.84
2023-04-14T23:01:30.985Z,97466.75
2023-04-14T23:03:57.535Z,97458.56
2023-04-14T23:06:24.650Z,97463.38
2023-04-14T23:08:51.268Z,97467.63
2023-04-14T23:11:20.790Z,97454.88
2023-04-14T23:13:47.810Z,97460.63
2023-04-14T23:16:16.683Z,97456.53
2023-04-14T23:18:43.383Z,97463.41
2023-04-14T23:21:10.036Z,97462.25
2023-04-14T23:23:36.963Z,97465.03
2023-04-14T23:26:03.770Z,97463.50
2023-04-14T23:28:30.246Z,97457.56
2023-04-14T23:30:57.208Z,97457.91
2023-04-14T23:33:23.681Z,97458.13
2023-04-14T23:35:51.072Z,97457.19
2023-04-14T23:38:19.333Z,97453.88
2023-04-14T23:40:46.096Z,97449.19
2023-04-14T23:43:12.551Z,97446.41
2023-04-14T23:45:39.029Z,97454.69
2023-04-14T23:48:06.559Z,97452.97
2023-04-14T23:51:01.052Z,97441.03
2023-04-14T23:53:20.047Z,97443.88
2023-04-14T23:55:47.575Z,97445.50
2023-04-14T23:58:25.989Z,97445.03
